Time;durP1;ratioP1;P1;durP2;ratioP2;P2;SDS_P1;SDS_P2;PMS_P1;PMS_P2;Temp;Humidity;BMP_temperature;BMP_pressure;BME280_temperature;BME280_humidity;BME280_pressure;Samples;Min_cycle;Max_cycle;Signal;HPM_P1;HPM_P2
2023/03/09 00:00:55;;;;;;;24.80;16.20;;;3.50;99.90;;;;;;5011443;28;20120;-60
2023/03/09 00:03:22;;;;;;;29.20;17.23;;;3.50;99.90;;;;;;5011443;28;20503;-60
2023/03/09 00:05:56;;;;;;;28.58;17.35;;;3.50;99.90;;;;;;5009726;28;20045;-60
2023/03/09 00:08:21;;;;;;;26.63;17.85;;;3.70;99.90;;;;;;5011140;28;20049;-60
2023/03/09 00:10:52;;;;;;;27.60;17.30;;;3.60;99.90;;;;;;5007839;28;20042;-60
2023/03/09 00:13:22;;;;;;;26.75;18.52;;;3.50;99.90;;;;;;5011038;28;20096;-60
2023/03/09 00:15:50;;;;;;;26.40;17.58;;;3.60;99.90;;;;;;5010007;28;20471;-60
2023/03/09 00:18:20;;;;;;;26.65;16.23;;;3.50;99.90;;;;;;5011377;28;20514;-60
2023/03/09 00:20:46;;;;;;;28.90;16.85;;;3.40;99.90;;;;;;5010197;28;20064;-61
2023/03/09 00:23:12;;;;;;;24.80;16.05;;;3.30;99.90;;;;;;5009227;28;20042;-60
2023/03/09 00:25:38;;;;;;;30.73;16.83;;;3.30;99.90;;;;;;5009100;28;20048;-60
2023/03/09 00:28:03;;;;;;;25.05;16.33;;;3.20;99.90;;;;;;5009396;28;20042;-60
2023/03/09 00:30:29;;;;;;;30.23;16.67;;;3.50;99.90;;;;;;5000905;28;20027;-60
2023/03/09 00:32:55;;;;;;;24.58;15.45;;;3.30;99.90;;;;;;5008288;28;20056;-60
2023/03/09 00:35:20;;;;;;;27.48;16.27;;;3.40;99.90;;;;;;5010238;28;20523;-60
2023/03/09 00:37:46;;;;;;;26.95;15.77;;;3.40;99.90;;;;;;5009944;28;20038;-60
2023/03/09 00:40:14;;;;;;;27.83;15.88;;;3.10;99.90;;;;;;5010001;28;20510;-60
2023/03/09 00:42:44;;;;;;;23.17;14.93;;;3.30;99.90;;;;;;5010393;28;20044;-61
2023/03/09 00:45:11;;;;;;;29.13;16.52;;;3.40;99.90;;;;;;5010657;28;20042;-60
2023/03/09 00:47:37;;;;;;;23.75;14.90;;;3.30;99.90;;;;;;5010120;28;20088;-62
2023/03/09 00:50:04;;;;;;;25.40;15.38;;;3.30;99.90;;;;;;5008973;28;20056;-61
2023/03/09 00:52:30;;;;;;;26.10;15.80;;;2.90;99.90;;;;;;5012256;28;20065;-61
2023/03/09 00:54:55;;;;;;;24.45;15.18;;;2.90;99.90;;;;;;5016585;28;20077;-60
2023/03/09 00:57:22;;;;;;;26.33;14.35;;;3.20;99.90;;;;;;5017201;28;20093;-63
2023/03/09 00:59:48;;;;;;;24.73;14.65;;;3.00;99.90;;;;;;5015821;28;20042;-60
2023/03/09 01:02:14;;;;;;;24.63;14.68;;;3.00;99.90;;;;;;5016430;28;20037;-60
2023/03/09 01:04:39;;;;;;;23.05;14.35;;;3.20;99.90;;;;;;5029714;28;20055;-60
2023/03/09 01:07:05;;;;;;;24.13;14.70;;;2.90;99.90;;;;;;5017142;28;20474;-60
2023/03/09 01:09:31;;;;;;;21.15;13.25;;;2.90;99.90;;;;;;5015588;28;20057;-60
2023/03/09 01:11:56;;;;;;;23.70;14.40;;;3.10;99.90;;;;;;5010348;28;20039;-60
2023/03/09 01:14:22;;;;;;;24.10;13.48;;;2.90;99.90;;;;;;4997783;28;20038;-60
2023/03/09 01:16:48;;;;;;;25.73;13.95;;;2.60;99.90;;;;;;4996171;28;20046;-61
2023/03/09 01:19:14;;;;;;;24.80;15.27;;;2.60;99.90;;;;;;5008392;28;20050;-60
2023/03/09 01:21:39;;;;;;;21.17;13.30;;;3.00;99.90;;;;;;5029413;28;20048;-60
2023/03/09 01:24:05;;;;;;;24.23;14.25;;;3.00;1.00;;;;;;4997444;28;20042;-61
2023/03/09 01:26:31;;;;;;;22.90;14.52;;;2.90;1.00;;;;;;4998123;28;20049;-60
2023/03/09 01:28:57;;;;;;;26.58;15.30;;;2.60;1.00;;;;;;5015993;28;20038;-60
2023/03/09 01:31:22;;;;;;;21.98;14.07;;;2.70;1.00;;;;;;5017174;28;20042;-61
2023/03/09 01:33:48;;;;;;;24.52;14.20;;;2.70;1.00;;;;;;5016442;28;20034;-61
2023/03/09 01:36:17;;;;;;;25.08;14.00;;;2.60;1.00;;;;;;5017047;28;20061;-61
2023/03/09 01:38:43;;;;;;;24.40;14.85;;;2.90;1.00;;;;;;5016625;28;20042;-61
2023/03/09 01:41:11;;;;;;;22.85;13.65;;;2.80;1.00;;;;;;5017154;28;20170;-60
2023/03/09 01:43:47;;;;;;;21.73;13.50;;;2.30;1.00;;;;;;5031325;28;20033;-61
2023/03/09 01:46:25;;;;;;;27.85;14.20;;;2.40;1.00;;;;;;5017081;28;20101;-60
2023/03/09 01:48:56;;;;;;;26.50;13.68;;;2.30;1.00;;;;;;5016271;28;20042;-60
2023/03/09 01:51:26;;;;;;;23.42;13.55;;;2.30;1.00;;;;;;5016869;28;20518;-60
2023/03/09 01:53:52;;;;;;;25.33;12.52;;;2.60;1.00;;;;;;5016342;28;20088;-60
2023/03/09 01:56:20;;;;;;;22.25;13.63;;;2.60;1.00;;;;;;5016932;28;20045;-60
2023/03/09 01:58:48;;;;;;;20.63;13.20;;;2.60;1.00;;;;;;5016474;28;20048;-60
2023/03/09 02:01:15;;;;;;;21.50;12.73;;;2.50;1.00;;;;;;5016014;28;20149;-60
2023/03/09 02:06:18;;;;;;;24.95;13.65;;;2.60;1.00;;;;;;4988175;22;20087;-59
2023/03/09 02:08:56;;;;;;;22.60;13.45;;;2.80;1.00;;;;;;4992925;28;20063;-59
2023/03/09 02:11:21;;;;;;;20.83;13.05;;;2.80;1.00;;;;;;4994274;28;20089;-59
2023/03/09 02:13:50;;;;;;;26.15;13.10;;;2.10;1.00;;;;;;4994289;28;20034;-59
2023/03/09 02:16:16;;;;;;;21.52;12.73;;;2.40;1.00;;;;;;4993110;28;20046;-59
2023/03/09 02:18:42;;;;;;;21.73;12.57;;;2.80;1.00;;;;;;4991813;28;20096;-60
2023/03/09 02:21:39;;;;;;;20.45;12.32;;;2.70;1.00;;;;;;4993191;28;20038;-59
2023/03/09 02:24:21;;;;;;;20.83;12.57;;;2.60;1.00;;;;;;4994091;28;20042;-59
2023/03/09 02:27:15;;;;;;;25.88;13.65;;;1.80;1.00;;;;;;4993934;28;20046;-59
2023/03/09 02:29:40;;;;;;;27.70;13.93;;;2.60;1.00;;;;;;4993712;28;20496;-59
2023/03/09 02:32:06;;;;;;;21.10;12.90;;;2.30;10.10;;;;;;4993921;28;20045;-60
2023/03/09 02:34:32;;;;;;;21.63;13.05;;;2.70;33.30;;;;;;4993899;28;20042;-60
2023/03/09 02:36:57;;;;;;;22.65;13.02;;;1.70;42.30;;;;;;4993927;28;20042;-59
2023/03/09 02:39:44;;;;;;;24.38;13.57;;;1.90;59.30;;;;;;4990975;28;20046;-60
2023/03/09 02:42:09;;;;;;;21.73;12.75;;;2.70;80.70;;;;;;4994047;28;20039;-59
2023/03/09 02:44:35;;;;;;;27.83;14.00;;;1.80;93.60;;;;;;4993778;28;20038;-60
2023/03/09 02:47:06;;;;;;;23.35;14.02;;;1.80;99.90;;;;;;4989136;28;20842;-59
2023/03/09 02:49:31;;;;;;;22.83;13.57;;;2.10;99.90;;;;;;4990198;28;20038;-59
2023/03/09 02:51:57;;;;;;;23.95;13.48;;;2.80;99.90;;;;;;4991768;28;20109;-59
2023/03/09 02:54:22;;;;;;;24.00;12.73;;;2.10;99.90;;;;;;4992886;28;20038;-59
2023/03/09 02:56:48;;;;;;;20.27;12.55;;;2.10;99.90;;;;;;4993086;28;20034;-60
2023/03/09 02:59:14;;;;;;;27.83;14.00;;;2.70;99.90;;;;;;4991243;28;20092;-59
2023/03/09 03:01:39;;;;;;;26.15;14.90;;;2.60;99.90;;;;;;4992202;28;20042;-60
2023/03/09 03:04:05;;;;;;;24.08;14.07;;;2.20;99.90;;;;;;4992914;28;20471;-60
2023/03/09 03:06:31;;;;;;;23.30;14.50;;;1.80;99.90;;;;;;4992994;28;20246;-60
2023/03/09 03:08:56;;;;;;;22.52;13.90;;;2.70;99.90;;;;;;4992404;28;20038;-60
2023/03/09 03:11:22;;;;;;;22.92;14.50;;;2.70;99.90;;;;;;4993527;28;20038;-60
2023/03/09 03:13:47;;;;;;;22.52;13.88;;;2.80;99.90;;;;;;4993280;28;20045;-59
2023/03/09 03:16:13;;;;;;;23.52;14.60;;;2.10;99.90;;;;;;4991953;28;20053;-60
2023/03/09 03:18:38;;;;;;;22.85;14.60;;;1.80;99.90;;;;;;4993011;28;20194;-60
2023/03/09 03:21:04;;;;;;;21.50;14.07;;;1.90;99.90;;;;;;4991797;28;20043;-59
2023/03/09 03:23:30;;;;;;;23.50;14.85;;;2.70;99.90;;;;;;4992805;28;20048;-59
2023/03/09 03:25:55;;;;;;;21.95;14.40;;;2.30;99.90;;;;;;4988548;28;20403;-59
2023/03/09 03:28:21;;;;;;;22.75;14.93;;;1.90;99.90;;;;;;4991491;28;20042;-59
2023/03/09 03:30:51;;;;;;;23.60;15.23;;;2.80;99.90;;;;;;4991928;28;20039;-59
2023/03/09 03:33:17;;;;;;;25.52;14.85;;;2.90;99.90;;;;;;4993178;28;20074;-59
2023/03/09 03:35:43;;;;;;;22.77;15.25;;;2.30;99.90;;;;;;4991047;28;20085;-59
2023/03/09 03:38:08;;;;;;;26.45;15.30;;;1.80;99.90;;;;;;4992751;28;20117;-59
2023/03/09 03:40:34;;;;;;;25.25;15.88;;;2.80;1.00;;;;;;4992744;28;20046;-59
2023/03/09 03:42:59;;;;;;;23.33;14.75;;;1.90;1.00;;;;;;5006132;28;20052;-59
2023/03/09 03:45:25;;;;;;;23.50;14.57;;;2.70;1.00;;;;;;5001967;28;20074;-59
2023/03/09 03:47:51;;;;;;;22.90;15.07;;;2.70;1.00;;;;;;4991936;28;20030;-60
2023/03/09 03:50:16;;;;;;;20.98;14.63;;;2.90;1.00;;;;;;4990775;28;20096;-59
2023/03/09 03:52:42;;;;;;;23.85;14.95;;;2.80;1.00;;;;;;5006858;28;20435;-59
2023/03/09 03:55:08;;;;;;;23.33;15.57;;;1.90;1.00;;;;;;4991916;28;20060;-60
2023/03/09 03:57:33;;;;;;;24.60;15.90;;;2.60;1.00;;;;;;4992320;28;20042;-60
2023/03/09 03:59:59;;;;;;;28.75;15.55;;;2.40;1.00;;;;;;4992407;28;20050;-59
2023/03/09 04:02:24;;;;;;;23.77;15.27;;;1.90;1.00;;;;;;4992372;28;20495;-60
2023/03/09 04:04:50;;;;;;;26.50;16.45;;;1.90;1.00;;;;;;4990533;28;20515;-60
2023/03/09 04:07:15;;;;;;;29.52;16.92;;;2.80;1.00;;;;;;4991165;28;20043;-60
2023/03/09 04:09:41;;;;;;;27.65;15.90;;;2.70;1.00;;;;;;4992464;28;20126;-60
2023/03/09 04:12:07;;;;;;;27.33;16.58;;;2.00;1.00;;;;;;4992309;28;20550;-60
2023/03/09 04:14:33;;;;;;;24.92;16.48;;;2.30;1.00;;;;;;4989619;28;20042;-60
2023/03/09 04:16:59;;;;;;;30.17;17.35;;;1.90;1.00;;;;;;4989720;28;20045;-59
2023/03/09 04:19:24;;;;;;;26.83;16.88;;;1.90;1.00;;;;;;5007209;28;20049;-59
2023/03/09 04:21:50;;;;;;;24.58;16.58;;;1.90;1.00;;;;;;4991205;28;20041;-60
2023/03/09 04:24:15;;;;;;;28.00;17.55;;;2.70;1.00;;;;;;4991766;28;20403;-59
2023/03/09 04:26:41;;;;;;;26.35;16.70;;;2.10;1.00;;;;;;4991485;28;20093;-59
2023/03/09 04:29:07;;;;;;;29.90;17.42;;;1.90;1.00;;;;;;4989986;28;20439;-59
2023/03/09 04:31:32;;;;;;;27.45;18.42;;;2.80;1.00;;;;;;4990823;28;20076;-59
2023/03/09 04:33:58;;;;;;;32.80;18.25;;;2.10;1.00;;;;;;4991829;28;20038;-60
2023/03/09 04:36:23;;;;;;;28.80;17.77;;;1.90;1.00;;;;;;4991147;28;20038;-59
2023/03/09 04:38:49;;;;;;;28.23;18.02;;;2.10;1.00;;;;;;4992026;28;20483;-59
2023/03/09 04:41:14;;;;;;;29.92;18.90;;;2.80;1.00;;;;;;4990621;28;20554;-60
2023/03/09 04:43:40;;;;;;;29.73;19.27;;;2.00;1.00;;;;;;4973463;28;20162;-59
2023/03/09 04:46:06;;;;;;;28.48;18.13;;;2.70;1.00;;;;;;4991004;28;20501;-60
2023/03/09 04:48:31;;;;;;;31.80;18.65;;;2.60;1.00;;;;;;4991238;28;20042;-59
2023/03/09 04:50:57;;;;;;;29.08;18.73;;;2.10;1.00;;;;;;5006767;28;20038;-60
2023/03/09 04:53:22;;;;;;;32.85;18.02;;;2.50;1.00;;;;;;4991776;28;20035;-59
2023/03/09 04:55:48;;;;;;;29.73;18.42;;;2.30;1.00;;;;;;4987956;28;20038;-60
2023/03/09 04:58:13;;;;;;;29.48;18.00;;;2.80;1.00;;;;;;4991711;28;20104;-59
2023/03/09 05:00:39;;;;;;;30.40;17.50;;;2.50;1.00;;;;;;4990386;28;20057;-59
2023/03/09 05:03:04;;;;;;;27.13;17.23;;;2.70;1.00;;;;;;5006534;28;20046;-59
2023/03/09 05:05:30;;;;;;;27.85;17.58;;;2.50;1.00;;;;;;4989940;28;20062;-60
2023/03/09 05:07:55;;;;;;;27.42;17.05;;;2.70;99.90;;;;;;4990128;28;20058;-60
2023/03/09 05:10:21;;;;;;;30.63;18.98;;;2.30;99.90;;;;;;5006143;28;20043;-60
2023/03/09 05:12:47;;;;;;;31.00;19.60;;;2.80;99.90;;;;;;4991301;28;20105;-60
2023/03/09 05:15:12;;;;;;;27.80;18.40;;;2.20;99.90;;;;;;4990203;28;20045;-60
2023/03/09 05:17:38;;;;;;;28.55;18.90;;;2.40;99.90;;;;;;4989374;28;20038;-59
2023/03/09 05:20:14;;;;;;;29.27;18.92;;;2.60;99.90;;;;;;4991563;28;20553;-59
2023/03/09 05:22:39;;;;;;;30.52;18.70;;;2.80;99.90;;;;;;4991568;28;20045;-59
2023/03/09 05:25:06;;;;;;;31.23;19.45;;;2.40;99.90;;;;;;4986254;28;20042;-59
2023/03/09 05:27:32;;;;;;;31.00;19.20;;;2.50;99.90;;;;;;4987408;28;20125;-59
2023/03/09 05:29:58;;;;;;;27.55;18.83;;;2.80;99.90;;;;;;4988828;28;20046;-59
2023/03/09 05:32:23;;;;;;;29.77;19.45;;;2.50;99.90;;;;;;4988709;28;20038;-59
2023/03/09 05:34:49;;;;;;;32.40;19.35;;;2.90;99.90;;;;;;4990221;28;20035;-59
2023/03/09 05:37:14;;;;;;;31.55;19.52;;;2.60;99.90;;;;;;4990319;28;20050;-59
2023/03/09 05:39:40;;;;;;;32.65;18.90;;;2.60;99.90;;;;;;4989984;28;20122;-59
2023/03/09 05:42:06;;;;;;;28.92;17.75;;;2.90;99.90;;;;;;4992385;28;20038;-59
2023/03/09 05:44:32;;;;;;;28.50;18.10;;;2.40;99.90;;;;;;4994052;28;20039;-60
2023/03/09 05:46:57;;;;;;;28.38;18.63;;;2.80;99.90;;;;;;4993560;28;20113;-60
2023/03/09 05:49:27;;;;;;;29.73;18.85;;;2.90;99.90;;;;;;4989390;28;20034;-60
2023/03/09 05:51:53;;;;;;;32.08;18.38;;;2.90;99.90;;;;;;4988160;28;20034;-60
2023/03/09 05:54:19;;;;;;;29.40;19.10;;;2.50;99.90;;;;;;4990730;28;20034;-60
2023/03/09 05:56:44;;;;;;;31.08;18.15;;;2.30;99.90;;;;;;4989108;28;20053;-60
2023/03/09 05:59:10;;;;;;;30.73;18.90;;;2.40;99.90;;;;;;4993972;28;20053;-60
2023/03/09 06:01:35;;;;;;;30.60;19.67;;;2.30;99.90;;;;;;4994441;28;20045;-60
2023/03/09 06:04:01;;;;;;;32.30;20.30;;;2.70;99.90;;;;;;4990134;28;20034;-60
2023/03/09 06:06:27;;;;;;;34.58;20.35;;;2.80;99.90;;;;;;4993230;28;20050;-61
2023/03/09 06:08:54;;;;;;;28.88;19.13;;;2.50;99.90;;;;;;4976924;28;20050;-60
2023/03/09 06:11:19;;;;;;;31.65;20.48;;;2.40;99.90;;;;;;4989488;28;20039;-60
2023/03/09 06:13:45;;;;;;;29.77;18.98;;;2.20;99.90;;;;;;4987093;28;20514;-59
2023/03/09 06:16:15;;;;;;;29.58;18.98;;;2.60;99.90;;;;;;4989128;28;20038;-60
2023/03/09 06:18:42;;;;;;;32.30;20.67;;;2.50;99.90;;;;;;4990645;28;20202;-59
2023/03/09 06:21:08;;;;;;;27.92;19.02;;;2.50;99.90;;;;;;4989976;28;20042;-59
2023/03/09 06:23:37;;;;;;;28.70;17.42;;;2.20;99.90;;;;;;4990504;28;20050;-59
2023/03/09 06:26:05;;;;;;;27.00;18.75;;;2.10;99.90;;;;;;4985328;28;20043;-60
2023/03/09 06:28:31;;;;;;;31.00;19.70;;;2.00;99.90;;;;;;4992351;28;20456;-59
2023/03/09 06:30:57;;;;;;;29.52;19.52;;;2.30;99.90;;;;;;4988185;28;20031;-59
2023/03/09 06:33:22;;;;;;;28.25;19.67;;;2.10;99.90;;;;;;4987387;28;20116;-60
2023/03/09 06:35:48;;;;;;;31.88;20.00;;;2.30;99.90;;;;;;4992920;28;20042;-59
2023/03/09 06:38:14;;;;;;;26.48;18.73;;;2.00;99.90;;;;;;4989871;28;20038;-59
2023/03/09 06:40:39;;;;;;;28.45;19.23;;;2.20;99.90;;;;;;4992306;28;20104;-59
2023/03/09 06:43:05;;;;;;;32.75;21.42;;;2.20;99.90;;;;;;4993112;28;20030;-59
2023/03/09 06:45:30;;;;;;;29.98;19.67;;;2.40;99.90;;;;;;4989315;28;20038;-59
2023/03/09 06:47:57;;;;;;;33.75;20.60;;;2.60;99.90;;;;;;4980632;28;20046;-59
2023/03/09 06:50:24;;;;;;;1890.25;91.78;;;2.50;99.90;;;;;;4975732;28;20516;-59
2023/03/09 06:52:50;;;;;;;31.15;19.48;;;2.20;99.90;;;;;;4993883;28;20045;-59
2023/03/09 06:55:15;;;;;;;34.15;21.00;;;2.70;99.90;;;;;;4993384;28;20829;-59
2023/03/09 06:57:41;;;;;;;31.92;20.90;;;2.70;99.90;;;;;;4993623;28;20061;-60
2023/03/09 07:00:10;;;;;;;33.78;21.08;;;2.50;99.90;;;;;;4999796;28;20045;-59
2023/03/09 07:02:36;;;;;;;32.55;21.13;;;2.30;99.90;;;;;;4993486;28;20043;-59
2023/03/09 07:05:02;;;;;;;31.98;22.02;;;2.70;99.90;;;;;;4992761;28;20046;-59
2023/03/09 07:07:28;;;;;;;32.72;21.60;;;2.50;99.90;;;;;;4999578;28;20038;-59
2023/03/09 07:09:53;;;;;;;30.65;20.45;;;3.00;99.90;;;;;;5012984;28;20042;-59
2023/03/09 07:12:19;;;;;;;34.90;21.70;;;3.00;99.90;;;;;;4982445;28;20050;-58
2023/03/09 07:14:45;;;;;;;35.53;22.33;;;2.80;99.90;;;;;;4990896;28;20087;-58
2023/03/09 07:17:14;;;;;;;32.47;21.23;;;3.00;99.90;;;;;;5012665;28;20073;-58
2023/03/09 07:19:40;;;;;;;34.58;21.83;;;3.10;99.90;;;;;;5000276;28;20053;-58
2023/03/09 07:22:07;;;;;;;36.20;22.48;;;2.90;99.90;;;;;;4988588;28;20042;-58
2023/03/09 07:24:37;;;;;;;36.33;22.50;;;3.00;99.90;;;;;;4991876;28;20034;-58
2023/03/09 07:27:03;;;;;;;33.22;21.27;;;3.00;99.90;;;;;;4991987;28;20169;-58
2023/03/09 07:29:29;;;;;;;35.28;21.15;;;3.20;99.90;;;;;;4991624;28;20026;-59
2023/03/09 07:31:55;;;;;;;30.85;21.23;;;3.40;99.90;;;;;;4992625;28;20045;-59
2023/03/09 07:34:21;;;;;;;29.67;19.92;;;3.00;99.90;;;;;;4992515;28;20042;-58
2023/03/09 07:36:47;;;;;;;31.63;20.42;;;3.10;99.90;;;;;;4992812;28;20038;-58
2023/03/09 07:39:13;;;;;;;32.28;20.98;;;3.50;99.90;;;;;;4990591;28;20038;-58
2023/03/09 07:41:41;;;;;;;30.05;19.48;;;3.20;99.90;;;;;;4992335;28;20507;-58
2023/03/09 07:44:07;;;;;;;28.27;18.92;;;3.40;99.90;;;;;;4993495;28;20056;-58
2023/03/09 07:46:33;;;;;;;28.77;19.67;;;3.30;99.90;;;;;;4991988;28;20125;-59
2023/03/09 07:48:58;;;;;;;31.25;20.00;;;3.50;99.90;;;;;;4991929;28;20035;-59
2023/03/09 07:51:24;;;;;;;28.23;18.25;;;3.40;99.90;;;;;;4997244;28;20038;-58
2023/03/09 07:53:50;;;;;;;27.10;16.10;;;3.50;99.90;;;;;;4992189;28;20034;-58
2023/03/09 07:56:15;;;;;;;43.47;20.52;;;3.20;99.90;;;;;;4992293;28;20034;-59
2023/03/09 07:58:41;;;;;;;29.30;19.73;;;3.70;99.90;;;;;;4991865;28;20109;-59
2023/03/09 08:01:13;;;;;;;29.40;18.95;;;3.40;99.90;;;;;;4992206;28;20053;-60
2023/03/09 08:03:38;;;;;;;23.15;15.80;;;3.80;99.90;;;;;;4991986;28;20467;-59
2023/03/09 08:06:05;;;;;;;30.50;19.00;;;3.50;99.90;;;;;;4991747;28;20089;-58
2023/03/09 08:08:32;;;;;;;28.25;18.73;;;3.90;99.90;;;;;;4991776;28;20893;-59
2023/03/09 08:10:58;;;;;;;30.45;19.38;;;3.60;99.90;;;;;;4992008;28;20038;-59
2023/03/09 08:13:24;;;;;;;25.95;18.30;;;3.80;99.90;;;;;;4990573;28;20050;-59
2023/03/09 08:15:51;;;;;;;26.80;18.85;;;3.80;99.90;;;;;;4976057;28;20046;-59
2023/03/09 08:18:17;;;;;;;27.15;15.88;;;3.80;99.70;;;;;;4990607;28;20508;-59
2023/03/09 08:20:43;;;;;;;29.45;18.90;;;4.00;92.80;;;;;;4989651;28;20181;-59
2023/03/09 08:23:09;;;;;;;25.38;16.50;;;4.00;78.30;;;;;;4991732;28;20503;-59
2023/03/09 08:25:35;;;;;;;23.80;16.20;;;4.20;59.60;;;;;;4991886;28;20049;-59
2023/03/09 08:28:02;;;;;;;20.92;14.35;;;4.60;55.70;;;;;;4990165;28;20039;-59
2023/03/09 08:30:27;;;;;;;20.73;15.23;;;4.70;23.70;;;;;;4992196;28;20074;-59
2023/03/09 08:32:53;;;;;;;21.40;15.38;;;4.50;1.00;;;;;;4992025;28;20508;-59
2023/03/09 08:35:22;;;;;;;15.68;11.75;;;4.60;1.00;;;;;;4991806;28;20169;-59
2023/03/09 08:37:48;;;;;;;20.10;11.02;;;4.70;1.00;;;;;;4984855;28;20049;-59
2023/03/09 08:40:14;;;;;;;18.90;13.25;;;4.60;1.00;;;;;;4972892;28;20396;-59
2023/03/09 08:42:41;;;;;;;25.98;14.50;;;4.40;1.00;;;;;;4996712;28;20050;-63
2023/03/09 08:45:08;;;;;;;16.77;11.80;;;5.20;1.00;;;;;;4990975;28;20369;-60
2023/03/09 08:47:34;;;;;;;17.65;12.80;;;5.20;99.90;;;;;;4987319;28;20038;-59
2023/03/09 08:50:00;;;;;;;15.85;12.13;;;5.60;99.90;;;;;;4991587;28;20101;-59
2023/03/09 08:52:25;;;;;;;21.55;12.70;;;6.10;99.90;;;;;;4991896;28;20046;-59
2023/03/09 08:54:51;;;;;;;14.77;11.18;;;6.20;99.90;;;;;;4990400;28;20070;-59
2023/03/09 08:57:17;;;;;;;14.32;10.43;;;6.20;99.90;;;;;;4976044;28;20474;-59
2023/03/09 08:59:46;;;;;;;13.55;10.18;;;6.10;99.90;;;;;;4976395;28;20085;-59
2023/03/09 09:02:14;;;;;;;14.55;10.35;;;6.30;99.90;;;;;;4991340;28;20102;-59
2023/03/09 09:04:46;;;;;;;11.90;10.18;;;6.00;99.90;;;;;;4990114;28;20063;-59
2023/03/09 09:07:14;;;;;;;15.20;10.80;;;6.20;99.90;;;;;;4990857;28;20057;-59
2023/03/09 09:09:40;;;;;;;13.77;10.80;;;6.10;99.90;;;;;;4991280;28;20440;-59
2023/03/09 09:12:07;;;;;;;12.02;9.00;;;6.10;99.90;;;;;;4997791;28;20415;-59
2023/03/09 09:14:34;;;;;;;15.50;10.65;;;5.90;99.90;;;;;;5012062;28;20117;-59
2023/03/09 09:17:00;;;;;;;14.15;10.10;;;5.70;99.90;;;;;;4997761;28;20116;-59
2023/03/09 09:19:26;;;;;;;14.32;10.52;;;5.60;97.20;;;;;;4995543;28;20046;-59
2023/03/09 09:21:52;;;;;;;13.20;10.93;;;5.30;92.60;;;;;;4994567;28;20130;-59
2023/03/09 09:24:19;;;;;;;12.00;9.98;;;5.40;92.90;;;;;;4995623;28;20054;-59
2023/03/09 09:26:45;;;;;;;13.40;10.38;;;5.50;96.10;;;;;;4994946;28;20133;-59
2023/03/09 09:29:11;;;;;;;13.60;9.77;;;5.70;96.10;;;;;;4995225;28;20073;-59
2023/03/09 09:31:38;;;;;;;12.10;9.75;;;5.60;94.90;;;;;;4994799;28;20531;-59
2023/03/09 09:34:04;;;;;;;14.35;9.90;;;5.60;88.60;;;;;;4995532;28;20392;-59
2023/03/09 09:36:29;;;;;;;11.70;10.05;;;5.50;83.40;;;;;;4995200;28;20045;-59
2023/03/09 09:38:55;;;;;;;13.65;9.75;;;5.40;79.80;;;;;;4995203;28;20030;-59
2023/03/09 09:41:27;;;;;;;13.18;9.80;;;5.70;84.10;;;;;;4994564;28;20034;-59
2023/03/09 09:43:58;;;;;;;13.50;9.98;;;5.60;80.20;;;;;;4993784;28;20491;-59
2023/03/09 09:46:26;;;;;;;14.77;9.45;;;5.80;85.20;;;;;;4994988;28;20046;-58
2023/03/09 09:48:51;;;;;;;11.32;9.50;;;5.80;80.20;;;;;;4993423;28;20042;-59
2023/03/09 09:51:43;;;;;;;12.35;9.13;;;5.90;95.00;;;;;;4993082;28;20057;-59
2023/03/09 09:54:27;;;;;;;13.75;9.07;;;5.90;91.60;;;;;;4993590;28;20042;-59
2023/03/09 09:57:00;;;;;;;12.48;9.30;;;5.80;82.50;;;;;;4994775;28;20129;-59
2023/03/09 09:59:41;;;;;;;12.35;9.35;;;5.90;73.60;;;;;;4994347;28;20551;-59
2023/03/09 10:02:10;;;;;;;15.05;10.07;;;5.90;62.80;;;;;;4993006;28;20042;-59
2023/03/09 10:04:40;;;;;;;11.73;9.23;;;5.90;58.70;;;;;;4994187;28;20605;-59
2023/03/09 10:07:17;;;;;;;14.32;10.13;;;6.00;58.20;;;;;;4994693;28;20153;-59
2023/03/09 10:10:04;;;;;;;15.80;9.88;;;6.20;61.90;;;;;;4993435;28;20042;-59
2023/03/09 10:12:31;;;;;;;12.38;9.75;;;6.20;52.00;;;;;;5008906;28;20046;-59
2023/03/09 10:15:06;;;;;;;12.43;8.73;;;6.30;35.00;;;;;;4992477;28;20403;-59
2023/03/09 10:17:37;;;;;;;11.10;7.93;;;6.20;28.70;;;;;;4993836;28;20045;-59
2023/03/09 10:20:29;;;;;;;9.93;7.60;;;6.10;18.70;;;;;;4996517;28;20119;-59
2023/03/09 10:22:56;;;;;;;10.98;8.32;;;6.10;15.50;;;;;;4993565;28;20121;-59
2023/03/09 10:25:22;;;;;;;11.40;8.02;;;6.10;14.90;;;;;;4992565;28;20036;-59
2023/03/09 10:27:56;;;;;;;12.95;8.98;;;6.10;8.70;;;;;;5001518;28;20065;-59
2023/03/09 10:30:55;;;;;;;13.77;9.48;;;6.10;10.10;;;;;;5012674;28;20061;-59
2023/03/09 10:33:42;;;;;;;14.43;9.40;;;6.30;15.20;;;;;;4993978;28;20046;-59
2023/03/09 10:36:22;;;;;;;14.93;9.18;;;6.20;12.10;;;;;;4993191;28;20038;-59
2023/03/09 10:38:52;;;;;;;11.13;8.20;;;5.90;3.30;;;;;;4991681;28;20042;-59
2023/03/09 10:41:20;;;;;;;12.98;8.88;;;5.80;1.00;;;;;;4993328;28;20111;-59
2023/03/09 10:43:46;;;;;;;10.77;7.93;;;5.70;1.00;;;;;;4987018;28;20096;-59
2023/03/09 10:46:16;;;;;;;13.15;8.95;;;5.80;1.90;;;;;;4992463;28;20130;-59
2023/03/09 10:48:46;;;;;;;11.45;9.52;;;5.90;19.60;;;;;;4993228;28;20129;-59
2023/03/09 10:51:23;;;;;;;11.88;9.45;;;5.90;12.70;;;;;;4991281;28;20042;-59
2023/03/09 10:53:49;;;;;;;13.13;9.02;;;6.00;12.00;;;;;;4993046;28;20084;-58
2023/03/09 10:56:19;;;;;;;11.15;8.75;;;6.00;12.80;;;;;;4991902;28;20058;-59
2023/03/09 10:58:45;;;;;;;10.75;9.02;;;5.90;9.70;;;;;;4996365;28;20507;-59
2023/03/09 11:01:16;;;;;;;12.38;8.77;;;5.80;6.40;;;;;;4992625;28;20049;-59
2023/03/09 11:03:43;;;;;;;12.52;9.85;;;5.70;2.80;;;;;;4993448;28;20093;-59
2023/03/09 11:06:26;;;;;;;13.23;9.60;;;5.90;9.10;;;;;;4992475;28;20057;-59
2023/03/09 11:09:05;;;;;;;12.48;8.73;;;6.00;9.60;;;;;;5000618;28;20041;-59
2023/03/09 11:11:30;;;;;;;12.27;8.93;;;6.00;7.00;;;;;;4995014;28;20038;-59
2023/03/09 11:13:56;;;;;;;12.85;8.45;;;6.00;5.50;;;;;;4994253;28;20041;-59
2023/03/09 11:16:24;;;;;;;12.65;10.27;;;5.80;1.30;;;;;;4973629;28;20039;-59
2023/03/09 11:19:05;;;;;;;12.60;10.05;;;5.90;1.00;;;;;;4994890;28;20096;-59
2023/03/09 11:21:31;;;;;;;16.40;10.20;;;6.10;1.00;;;;;;4993126;28;20038;-59
2023/03/09 11:24:00;;;;;;;17.13;9.65;;;5.80;1.00;;;;;;4992666;28;20041;-59
2023/03/09 11:26:32;;;;;;;18.17;10.02;;;5.80;1.00;;;;;;4993130;28;20038;-58
2023/03/09 11:29:01;;;;;;;12.25;9.55;;;5.90;1.00;;;;;;4992534;28;20038;-59
2023/03/09 11:31:40;;;;;;;15.50;9.48;;;5.90;1.00;;;;;;4985396;28;20038;-58
2023/03/09 11:34:11;;;;;;;11.50;9.15;;;5.90;1.00;;;;;;4991782;28;20038;-59
2023/03/09 11:36:43;;;;;;;11.30;8.73;;;6.00;1.50;;;;;;4991911;28;20488;-59
2023/03/09 11:39:21;;;;;;;11.30;8.93;;;5.90;1.00;;;;;;4991063;28;20042;-59
2023/03/09 11:41:49;;;;;;;11.80;8.90;;;5.90;1.00;;;;;;4993142;28;20674;-59
2023/03/09 11:44:30;;;;;;;11.80;8.18;;;5.90;1.00;;;;;;4991960;28;20039;-59
2023/03/09 11:47:02;;;;;;;10.25;7.90;;;6.00;1.30;;;;;;4992266;28;20050;-59
2023/03/09 11:49:29;;;;;;;13.10;8.63;;;6.00;1.00;;;;;;4973856;28;20065;-59
2023/03/09 11:51:58;;;;;;;11.45;8.68;;;6.00;1.00;;;;;;4992222;28;20045;-58
2023/03/09 11:54:24;;;;;;;11.27;8.18;;;6.00;1.00;;;;;;4990534;28;20058;-59
2023/03/09 11:56:52;;;;;;;9.70;8.05;;;6.00;1.00;;;;;;4991657;28;20100;-59
2023/03/09 11:59:29;;;;;;;9.80;8.20;;;6.00;1.00;;;;;;4990761;28;20054;-58
2023/03/09 12:02:19;;;;;;;13.32;9.35;;;6.00;1.00;;;;;;4992105;28;20046;-59
2023/03/09 12:04:50;;;;;;;11.38;7.97;;;6.10;1.00;;;;;;4988145;28;20056;-59
2023/03/09 12:07:23;;;;;;;12.82;8.32;;;6.00;1.00;;;;;;4991646;28;20073;-59
2023/03/09 12:10:01;;;;;;;14.73;9.60;;;6.00;1.00;;;;;;4991385;28;20042;-59
2023/03/09 12:12:41;;;;;;;14.85;10.60;;;5.90;1.00;;;;;;4991578;28;20045;-59
2023/03/09 12:15:32;;;;;;;12.93;9.27;;;6.00;1.00;;;;;;4982387;28;20070;-58
2023/03/09 12:18:00;;;;;;;11.80;8.55;;;5.90;1.00;;;;;;4981266;28;20042;-58
2023/03/09 12:20:32;;;;;;;12.13;9.18;;;5.90;1.00;;;;;;4990039;28;20038;-59
2023/03/09 12:22:57;;;;;;;11.23;8.93;;;5.70;1.00;;;;;;4991692;28;20100;-59
2023/03/09 12:25:25;;;;;;;10.40;8.70;;;5.90;2.60;;;;;;4991208;28;20043;-59
2023/03/09 12:28:00;;;;;;;9.88;7.72;;;6.00;5.60;;;;;;4991096;28;20427;-58
2023/03/09 12:30:53;;;;;;;9.13;7.13;;;5.90;1.30;;;;;;4991511;28;20045;-59
2023/03/09 12:33:41;;;;;;;9.70;7.93;;;6.00;1.00;;;;;;4990593;28;20041;-58
2023/03/09 12:36:24;;;;;;;17.70;8.70;;;5.90;1.00;;;;;;4991227;28;20042;-59
2023/03/09 12:39:24;;;;;;;10.55;8.75;;;6.00;1.00;;;;;;4990746;28;20057;-59
2023/03/09 12:42:14;;;;;;;12.38;8.25;;;6.00;1.00;;;;;;4993143;28;20451;-59
2023/03/09 12:44:51;;;;;;;9.30;7.13;;;6.10;1.00;;;;;;4972370;28;20117;-59
2023/03/09 12:47:33;;;;;;;12.65;7.93;;;6.10;1.00;;;;;;4991640;28;20042;-59
2023/03/09 12:49:59;;;;;;;9.63;7.97;;;6.10;1.00;;;;;;4991101;28;20425;-59
2023/03/09 12:52:25;;;;;;;11.55;8.63;;;6.10;1.00;;;;;;4991902;28;20042;-58